PWSweather.com
Personal Weather Stations
Station Observations
SUBOTICARS
SuboticaYU

SuboticaYU

Lat: 46.1296717, Lon: 19.641551

Elevation: 361

Station Type: Nexus

http://sumeteo.info

Latest ConditionsUpdated 3:20:02 PM GMT+01:01 Tuesday, Jun 30, 2015
Currently Today's Max Today's Min Today's Average
Temperature 78.1°F25.6°C 78.3°F25.7°C 52.7°F11.5°C 65.9°F18.8°C
Dew Point 56.8°F13.8°C 60.5°F15.8°C 49.1°F9.5°C 55.4°F13.0°C
Winds 1.2 mph SSE1.9 kmh SSE 5.8 mph ENE9.3 kmh ENE - 2.0 mph 3.2 kmh
Wind Gusts 1.2 mph1.9 kmh 9.2 mph14.8 kmh - -
Humidity 48% 90% 45% 71%
Pressure 30.14 in1020.7 mb 30.19 in1022.4 mb 30.14 in1020.7 mb -
Hour Temp Dew Point Humidity Winds Wind Gusts Pressure Precip Precip Rate Daily Precip Total
03:20 PM 78.1°F25.6°C 56.8°F13.8°C 48% 1.2 mph SSE1.9 kmh SSE 1.2 mph1.9 kmh 30.14 in1020.7 mb - 0.00 in0.0 mm 0.00 in0.0 mm
03:10 PM 78.1°F25.6°C 56.2°F13.4°C 47% 2.3 mph NNE3.7 kmh NNE 3.5 mph5.6 kmh 30.14 in1020.7 mb - 0.00 in0.0 mm 0.00 in0.0 mm
03:00 PM 77.5°F25.3°C 56.9°F13.8°C 49% 2.3 mph NE3.7 kmh NE 4.6 mph7.4 kmh 30.14 in1020.7 mb - 0.00 in0.0 mm 0.00 in0.0 mm
02:50 PM 77.0°F25.0°C 56.9°F13.8°C 50% 1.2 mph ENE1.9 kmh ENE 3.5 mph5.6 kmh 30.14 in1020.7 mb - 0.00 in0.0 mm 0.00 in0.0 mm
02:40 PM 76.8°F24.9°C 56.2°F13.4°C 49% 2.3 mph W3.7 kmh W 2.3 mph3.7 kmh 30.14 in1020.7 mb - 0.00 in0.0 mm 0.00 in0.0 mm
02:30 PM 77.7°F25.4°C 57.0°F13.9°C 49% 2.3 mph ESE3.7 kmh ESE -- 30.14 in1020.7 mb - 0.00 in0.0 mm 0.00 in0.0 mm
02:20 PM 78.3°F25.7°C 55.2°F12.9°C 45% 2.3 mph NE3.7 kmh NE 3.5 mph5.6 kmh 30.14 in1020.7 mb - 0.00 in0.0 mm 0.00 in0.0 mm
02:10 PM 77.2°F25.1°C 57.1°F13.9°C 50% 2.3 mph SSE3.7 kmh SSE 3.5 mph5.6 kmh 30.14 in1020.7 mb - 0.00 in0.0 mm 0.00 in0.0 mm
02:00 PM 77.0°F25.0°C 56.4°F13.6°C 49% 1.2 mph WNW1.9 kmh WNW 2.3 mph3.7 kmh 30.15 in1021.0 mb - 0.00 in0.0 mm 0.00 in0.0 mm
01:50 PM 77.0°F25.0°C 56.9°F13.8°C 50% 2.3 mph NE3.7 kmh NE 4.6 mph7.4 kmh 30.15 in1021.0 mb - 0.00 in0.0 mm 0.00 in0.0 mm
01:40 PM 76.8°F24.9°C 56.8°F13.8°C 50% 1.2 mph NNW1.9 kmh NNW -- 30.15 in1021.0 mb - 0.00 in0.0 mm 0.00 in0.0 mm
01:30 PM 77.2°F25.1°C 57.1°F13.9°C 50% 2.3 mph ESE3.7 kmh ESE 1.2 mph1.9 kmh 30.15 in1021.0 mb - 0.00 in0.0 mm 0.00 in0.0 mm
01:20 PM 78.1°F25.6°C 57.4°F14.1°C 49% 2.3 mph ENE3.7 kmh ENE 2.3 mph3.7 kmh 30.16 in1021.3 mb - 0.00 in0.0 mm 0.00 in0.0 mm
01:10 PM 77.0°F25.0°C 57.5°F14.2°C 51% 1.2 mph W1.9 kmh W 2.3 mph3.7 kmh 30.16 in1021.3 mb - 0.00 in0.0 mm 0.00 in0.0 mm
01:00 PM 75.9°F24.4°C 57.0°F13.9°C 52% 1.2 mph NNW1.9 kmh NNW -- 30.16 in1021.3 mb - 0.00 in0.0 mm 0.00 in0.0 mm
12:50 PM 75.9°F24.4°C 57.6°F14.2°C 53% 2.3 mph NNE3.7 kmh NNE 2.3 mph3.7 kmh 30.16 in1021.3 mb - 0.00 in0.0 mm 0.00 in0.0 mm
12:40 PM 76.5°F24.7°C 58.6°F14.8°C 54% 3.5 mph NNE5.6 kmh NNE 4.6 mph7.4 kmh 30.16 in1021.3 mb - 0.00 in0.0 mm 0.00 in0.0 mm
12:30 PM 75.7°F24.3°C 56.9°F13.8°C 52% 2.3 mph NE3.7 kmh NE 2.3 mph3.7 kmh 30.16 in1021.3 mb - 0.00 in0.0 mm 0.00 in0.0 mm
12:20 PM 75.9°F24.4°C 58.1°F14.5°C 54% 3.5 mph NNW5.6 kmh NNW 2.3 mph3.7 kmh 30.16 in1021.3 mb - 0.00 in0.0 mm 0.00 in0.0 mm
12:10 PM 76.3°F24.6°C 57.9°F14.4°C 53% 3.5 mph ESE5.6 kmh ESE 3.5 mph5.6 kmh 30.16 in1021.3 mb - 0.00 in0.0 mm 0.00 in0.0 mm
12:00 PM 76.3°F24.6°C 58.4°F14.7°C 54% 2.3 mph NNE3.7 kmh NNE 1.2 mph1.9 kmh 30.17 in1021.7 mb - 0.00 in0.0 mm 0.00 in0.0 mm
11:50 AM 77.2°F25.1°C 58.7°F14.8°C 53% 3.5 mph ESE5.6 kmh ESE 2.3 mph3.7 kmh 30.17 in1021.7 mb - 0.00 in0.0 mm 0.00 in0.0 mm
11:40 AM 77.0°F25.0°C 58.6°F14.8°C 53% 3.5 mph E5.6 kmh E 2.3 mph3.7 kmh 30.17 in1021.7 mb - 0.00 in0.0 mm 0.00 in0.0 mm
11:30 AM 76.6°F24.8°C 59.3°F15.2°C 55% 3.5 mph NE5.6 kmh NE 2.3 mph3.7 kmh 30.17 in1021.7 mb - 0.00 in0.0 mm 0.00 in0.0 mm
11:20 AM 76.8°F24.9°C 58.4°F14.7°C 53% 2.3 mph ENE3.7 kmh ENE 1.2 mph1.9 kmh 30.18 in1022.0 mb - 0.00 in0.0 mm 0.00 in0.0 mm
11:10 AM 76.3°F24.6°C 59.4°F15.2°C 56% 3.5 mph ENE5.6 kmh ENE 2.3 mph3.7 kmh 30.18 in1022.0 mb - 0.00 in0.0 mm 0.00 in0.0 mm
11:00 AM 74.8°F23.8°C 58.6°F14.8°C 57% 2.3 mph ENE3.7 kmh ENE 2.3 mph3.7 kmh 30.17 in1021.7 mb - 0.00 in0.0 mm 0.00 in0.0 mm
10:50 AM 74.8°F23.8°C 58.1°F14.5°C 56% 3.5 mph NNE5.6 kmh NNE 3.5 mph5.6 kmh 30.17 in1021.7 mb - 0.00 in0.0 mm 0.00 in0.0 mm
10:40 AM 74.5°F23.6°C 58.7°F14.8°C 58% 2.3 mph NNW3.7 kmh NNW 6.9 mph11.1 kmh 30.17 in1021.7 mb - 0.00 in0.0 mm 0.00 in0.0 mm
10:30 AM 73.8°F23.2°C 59.0°F15.0°C 60% 2.3 mph NE3.7 kmh NE 2.3 mph3.7 kmh 30.17 in1021.7 mb - 0.00 in0.0 mm 0.00 in0.0 mm
10:20 AM 74.1°F23.4°C 59.3°F15.2°C 60% 4.6 mph NE7.4 kmh NE 4.6 mph7.4 kmh 30.18 in1022.0 mb - 0.00 in0.0 mm 0.00 in0.0 mm
10:10 AM 73.6°F23.1°C 59.8°F15.4°C 62% 2.3 mph ENE3.7 kmh ENE 3.5 mph5.6 kmh 30.18 in1022.0 mb - 0.00 in0.0 mm 0.00 in0.0 mm
10:00 AM 73.8°F23.2°C 59.5°F15.3°C 61% 4.6 mph NNW7.4 kmh NNW 5.8 mph9.3 kmh 30.18 in1022.0 mb - 0.00 in0.0 mm 0.00 in0.0 mm
09:50 AM 74.1°F23.4°C 59.8°F15.4°C 61% 4.6 mph ESE7.4 kmh ESE 9.2 mph14.8 kmh 30.18 in1022.0 mb - 0.00 in0.0 mm 0.00 in0.0 mm
09:40 AM 74.8°F23.8°C 60.5°F15.8°C 61% 4.6 mph NW7.4 kmh NW 4.6 mph7.4 kmh 30.18 in1022.0 mb - 0.00 in0.0 mm 0.00 in0.0 mm
09:30 AM 74.3°F23.5°C 60.0°F15.6°C 61% 3.5 mph NE5.6 kmh NE 5.8 mph9.3 kmh 30.18 in1022.0 mb - 0.00 in0.0 mm 0.00 in0.0 mm
09:20 AM 73.8°F23.2°C 59.9°F15.5°C 62% 4.6 mph NE7.4 kmh NE 4.6 mph7.4 kmh 30.18 in1022.0 mb - 0.00 in0.0 mm 0.00 in0.0 mm
09:10 AM 72.3°F22.4°C 59.5°F15.3°C 64% 5.8 mph ENE9.3 kmh ENE 5.8 mph9.3 kmh 30.18 in1022.0 mb - 0.00 in0.0 mm 0.00 in0.0 mm
09:00 AM 73.0°F22.8°C 59.2°F15.1°C 62% 4.6 mph NNW7.4 kmh NNW 8.1 mph13.0 kmh 30.19 in1022.4 mb - 0.00 in0.0 mm 0.00 in0.0 mm
08:50 AM 72.7°F22.6°C 60.2°F15.7°C 65% 3.5 mph NE5.6 kmh NE 5.8 mph9.3 kmh 30.19 in1022.4 mb - 0.00 in0.0 mm 0.00 in0.0 mm
08:40 AM 72.0°F22.2°C 60.0°F15.6°C 66% 4.6 mph 7.4 kmh 3.5 mph5.6 kmh 30.19 in1022.4 mb - 0.00 in0.0 mm 0.00 in0.0 mm
08:30 AM 71.2°F21.8°C 59.7°F15.4°C 67% 3.5 mph NE5.6 kmh NE 9.2 mph14.8 kmh 30.19 in1022.4 mb - 0.00 in0.0 mm 0.00 in0.0 mm
08:20 AM 70.3°F21.3°C 60.1°F15.6°C 70% 4.6 mph NW7.4 kmh NW 4.6 mph7.4 kmh 30.18 in1022.0 mb - 0.00 in0.0 mm 0.00 in0.0 mm
08:10 AM 70.2°F21.2°C 59.9°F15.5°C 70% 3.5 mph ENE5.6 kmh ENE 6.9 mph11.1 kmh 30.18 in1022.0 mb - 0.00 in0.0 mm 0.00 in0.0 mm
08:00 AM 69.4°F20.8°C 60.0°F15.6°C 72% 2.3 mph NNE3.7 kmh NNE 4.6 mph7.4 kmh 30.18 in1022.0 mb - 0.00 in0.0 mm 0.00 in0.0 mm
07:50 AM 68.5°F20.3°C 59.5°F15.3°C 73% 3.5 mph NE5.6 kmh NE 5.8 mph9.3 kmh 30.18 in1022.0 mb - 0.00 in0.0 mm 0.00 in0.0 mm
07:40 AM 68.4°F20.2°C 59.7°F15.4°C 74% 3.5 mph ENE5.6 kmh ENE 6.9 mph11.1 kmh 30.18 in1022.0 mb - 0.00 in0.0 mm 0.00 in0.0 mm
07:30 AM 68.4°F20.2°C 60.1°F15.6°C 75% 2.3 mph NW3.7 kmh NW 3.5 mph5.6 kmh 30.18 in1022.0 mb - 0.00 in0.0 mm 0.00 in0.0 mm
07:20 AM 67.5°F19.7°C 59.6°F15.3°C 76% 2.3 mph ENE3.7 kmh ENE 3.5 mph5.6 kmh 30.18 in1022.0 mb - 0.00 in0.0 mm 0.00 in0.0 mm
07:10 AM 66.4°F19.1°C 59.3°F15.2°C 78% 2.3 mph ENE3.7 kmh ENE 4.6 mph7.4 kmh 30.18 in1022.0 mb - 0.00 in0.0 mm 0.00 in0.0 mm
07:00 AM 65.3°F18.5°C 59.3°F15.2°C 81% 4.6 mph ENE7.4 kmh ENE 3.5 mph5.6 kmh 30.17 in1021.7 mb - 0.00 in0.0 mm 0.00 in0.0 mm
06:50 AM 64.2°F17.9°C 58.6°F14.8°C 82% 3.5 mph NNE5.6 kmh NNE 5.8 mph9.3 kmh 30.17 in1021.7 mb - 0.00 in0.0 mm 0.00 in0.0 mm
06:40 AM 64.0°F17.8°C 59.1°F15.1°C 84% 3.5 mph ENE5.6 kmh ENE 3.5 mph5.6 kmh 30.16 in1021.3 mb - 0.00 in0.0 mm 0.00 in0.0 mm
06:30 AM 63.0°F17.2°C 58.7°F14.8°C 86% 2.3 mph NE3.7 kmh NE 2.3 mph3.7 kmh 30.16 in1021.3 mb - 0.00 in0.0 mm 0.00 in0.0 mm
06:20 AM 61.3°F16.3°C 57.4°F14.1°C 87% 2.3 mph NE3.7 kmh NE 4.6 mph7.4 kmh 30.16 in1021.3 mb - 0.00 in0.0 mm 0.00 in0.0 mm
06:10 AM 60.4°F15.8°C 56.9°F13.8°C 88% 2.3 mph NNW3.7 kmh NNW 4.6 mph7.4 kmh 30.16 in1021.3 mb - 0.00 in0.0 mm 0.00 in0.0 mm
06:00 AM 59.5°F15.3°C 56.3°F13.5°C 89% 1.2 mph NNW1.9 kmh NNW 2.3 mph3.7 kmh 30.16 in1021.3 mb - 0.00 in0.0 mm 0.00 in0.0 mm
05:50 AM 58.5°F14.7°C 55.2°F12.9°C 89% 1.2 mph NNE1.9 kmh NNE 2.3 mph3.7 kmh 30.16 in1021.3 mb - 0.00 in0.0 mm 0.00 in0.0 mm
05:40 AM 58.3°F14.6°C 55.1°F12.8°C 89% 2.3 mph NE3.7 kmh NE -- 30.16 in1021.3 mb - 0.00 in0.0 mm 0.00 in0.0 mm
05:30 AM 57.7°F14.3°C 54.8°F12.7°C 90% 2.3 mph 3.7 kmh 3.5 mph5.6 kmh 30.16 in1021.3 mb - 0.00 in0.0 mm 0.00 in0.0 mm
05:20 AM 56.7°F13.7°C 53.5°F11.9°C 89% 2.3 mph NNW3.7 kmh NNW 3.5 mph5.6 kmh 30.15 in1021.0 mb - 0.00 in0.0 mm 0.00 in0.0 mm
05:10 AM 55.2°F12.9°C 52.0°F11.1°C 89% 1.2 mph 1.9 kmh 3.5 mph5.6 kmh 30.15 in1021.0 mb - 0.00 in0.0 mm 0.00 in0.0 mm
05:00 AM 54.7°F12.6°C 51.5°F10.8°C 89% 1.2 mph ENE1.9 kmh ENE 2.3 mph3.7 kmh 30.15 in1021.0 mb - 0.00 in0.0 mm 0.00 in0.0 mm
04:50 AM 54.1°F12.3°C 51.0°F10.6°C 89% 1.2 mph NE1.9 kmh NE -- 30.15 in1021.0 mb - 0.00 in0.0 mm 0.00 in0.0 mm
04:40 AM 53.8°F12.1°C 50.6°F10.3°C 89% 1.2 mph NE1.9 kmh NE 2.3 mph3.7 kmh 30.14 in1020.7 mb - 0.00 in0.0 mm 0.00 in0.0 mm
04:30 AM 53.8°F12.1°C 50.6°F10.3°C 89% 1.2 mph NNE1.9 kmh NNE 1.2 mph1.9 kmh 30.14 in1020.7 mb - 0.00 in0.0 mm 0.00 in0.0 mm
04:20 AM 53.4°F11.9°C 50.3°F10.2°C 89% 1.2 mph NE1.9 kmh NE 3.5 mph5.6 kmh 30.14 in1020.7 mb - 0.00 in0.0 mm 0.00 in0.0 mm
04:10 AM 53.4°F11.9°C 50.3°F10.2°C 89% 1.2 mph NE1.9 kmh NE -- 30.14 in1020.7 mb - 0.00 in0.0 mm 0.00 in0.0 mm
04:00 AM 52.9°F11.6°C 49.7°F9.8°C 89% 1.2 mph NE1.9 kmh NE 2.3 mph3.7 kmh 30.14 in1020.7 mb - 0.00 in0.0 mm 0.00 in0.0 mm
03:50 AM 52.9°F11.6°C 49.7°F9.8°C 89% Calm Calm -- 30.14 in1020.7 mb - 0.00 in0.0 mm 0.00 in0.0 mm
03:40 AM 52.7°F11.5°C 49.5°F9.7°C 89% Calm Calm -- 30.15 in1021.0 mb - 0.00 in0.0 mm 0.00 in0.0 mm
03:30 AM 52.9°F11.6°C 49.7°F9.8°C 89% Calm Calm -- 30.15 in1021.0 mb - 0.00 in0.0 mm 0.00 in0.0 mm
03:20 AM 52.9°F11.6°C 49.7°F9.8°C 89% Calm Calm -- 30.14 in1020.7 mb - 0.00 in0.0 mm 0.00 in0.0 mm
03:10 AM 53.1°F11.7°C 49.9°F9.9°C 89% 1.2 mph WSW1.9 kmh WSW 1.2 mph1.9 kmh 30.14 in1020.7 mb - 0.00 in0.0 mm 0.00 in0.0 mm
03:00 AM 52.7°F11.5°C 49.2°F9.6°C 88% Calm Calm 2.3 mph3.7 kmh 30.15 in1021.0 mb - 0.00 in0.0 mm 0.00 in0.0 mm
02:50 AM 52.9°F11.6°C 49.4°F9.7°C 88% 1.2 mph NNW1.9 kmh NNW 1.2 mph1.9 kmh 30.15 in1021.0 mb - 0.00 in0.0 mm 0.00 in0.0 mm
02:40 AM 52.7°F11.5°C 49.2°F9.6°C 88% Calm Calm -- 30.14 in1020.7 mb - 0.00 in0.0 mm 0.00 in0.0 mm
02:30 AM 52.9°F11.6°C 49.1°F9.5°C 87% Calm Calm -- 30.14 in1020.7 mb - 0.00 in0.0 mm 0.00 in0.0 mm
02:20 AM 53.1°F11.7°C 49.3°F9.6°C 87% Calm Calm -- 30.14 in1020.7 mb - 0.00 in0.0 mm 0.00 in0.0 mm
02:10 AM 53.2°F11.8°C 49.5°F9.7°C 87% Calm Calm -- 30.14 in1020.7 mb - 0.00 in0.0 mm 0.00 in0.0 mm
02:00 AM 53.4°F11.9°C 49.6°F9.8°C 87% Calm Calm -- 30.15 in1021.0 mb - 0.00 in0.0 mm 0.00 in0.0 mm
01:50 AM 53.8°F12.1°C 49.7°F9.8°C 86% Calm Calm -- 30.15 in1021.0 mb - 0.00 in0.0 mm 0.00 in0.0 mm
01:40 AM 54.0°F12.2°C 49.9°F9.9°C 86% Calm Calm -- 30.15 in1021.0 mb - 0.00 in0.0 mm 0.00 in0.0 mm
01:30 AM 54.3°F12.4°C 50.2°F10.1°C 86% Calm Calm -- 30.15 in1021.0 mb - 0.00 in0.0 mm 0.00 in0.0 mm
01:20 AM 54.7°F12.6°C 50.3°F10.2°C 85% Calm Calm -- 30.16 in1021.3 mb - 0.00 in0.0 mm 0.00 in0.0 mm
01:10 AM 55.0°F12.8°C 50.6°F10.3°C 85% Calm Calm -- 30.16 in1021.3 mb - 0.00 in0.0 mm 0.00 in0.0 mm
01:00 AM 55.2°F12.9°C 50.8°F10.4°C 85% Calm Calm -- 30.16 in1021.3 mb - 0.00 in0.0 mm 0.00 in0.0 mm
12:50 AM 55.4°F13.0°C 51.0°F10.6°C 85% Calm Calm -- 30.16 in1021.3 mb - 0.00 in0.0 mm 0.00 in0.0 mm
12:40 AM 55.8°F13.2°C 51.0°F10.6°C 84% Calm Calm -- 30.16 in1021.3 mb - 0.00 in0.0 mm 0.00 in0.0 mm
12:30 AM 55.8°F13.2°C 51.0°F10.6°C 84% Calm Calm 1.2 mph1.9 kmh 30.16 in1021.3 mb - 0.00 in0.0 mm 0.00 in0.0 mm
12:20 AM 56.1°F13.4°C 51.0°F10.6°C 83% Calm Calm -- 30.15 in1021.0 mb - 0.00 in0.0 mm 0.00 in0.0 mm
12:10 AM 56.5°F13.6°C 51.4°F10.8°C 83% Calm Calm -- 30.15 in1021.0 mb - 0.00 in0.0 mm 0.00 in0.0 mm
12:00 AM 57.0°F13.9°C 51.6°F10.9°C 82% Calm Calm -- 30.16 in1021.3 mb - 0.00 in0.0 mm 0.00 in0.0 mm